Foxworth, Mississippi
Current Conditions -  °F | °C
As of 9:35 AM on Monday 22 Dec 2014 (Local Time) from KPIB Reporting Station
Overcast Overcast  
Wind Chill: 55°   Ceiling: 200
Heat Index: 55°   Visibility: 0.75mi
Dew Point: 54°   Wind: 6mph
Humidity: 94%   Direction: 130°SE
Pressure: 29.87"   Gusts: NA
Location:  31.24°N, 89.87°W
Report Text: KPIB 221535Z AUTO 13005KT 3/4SM OVC002 13/12 A2987 RMK AO1
Loading
Personal Weather Stations






























Interactive Weather Map New forecast layout! Learn more

10-Day Weather Forecast

Advertisements
Track Severe Weather on mobile